createdAt,value
2018-08-20T00:01:42.442Z,100922.00
2018-08-20T00:04:11.282Z,100925.00
2018-08-20T00:06:53.816Z,100940.00
2018-08-20T00:10:01.265Z,100950.00
2018-08-20T00:12:30.174Z,100949.00
2018-08-20T00:14:59.029Z,100938.00
2018-08-20T00:17:27.917Z,100942.00
2018-08-20T00:19:56.740Z,100939.00
2018-08-20T00:22:25.608Z,100948.00
2018-08-20T00:25:12.172Z,100943.00
2018-08-20T00:27:41.070Z,100939.00
2018-08-20T00:30:15.332Z,100946.00
2018-08-20T00:32:45.212Z,100939.00
2018-08-20T00:35:17.234Z,100934.00
2018-08-20T00:37:49.652Z,100944.00
2018-08-20T00:40:19.000Z,100940.00
2018-08-20T00:42:47.843Z,100945.00
2018-08-20T00:45:16.707Z,100945.00
2018-08-20T00:47:45.597Z,100941.00
2018-08-20T00:50:14.497Z,100947.00
2018-08-20T00:52:43.414Z,100939.00
2018-08-20T00:55:12.921Z,100944.00
2018-08-20T00:57:42.249Z,100942.00
2018-08-20T01:00:11.601Z,100940.00
2018-08-20T01:02:40.399Z,100944.00
2018-08-20T01:05:09.265Z,100936.00
2018-08-20T01:07:38.107Z,100943.00
2018-08-20T01:10:08.191Z,100946.00
2018-08-20T01:12:37.072Z,100949.00
2018-08-20T01:15:06.140Z,100939.00
2018-08-20T01:17:35.029Z,100942.00
2018-08-20T01:20:03.898Z,100941.00
2018-08-20T01:22:32.746Z,100937.00
2018-08-20T01:25:01.614Z,100947.00
2018-08-20T01:27:30.691Z,100956.00
2018-08-20T01:29:59.587Z,100962.00
2018-08-20T01:32:28.410Z,100952.00
2018-08-20T01:35:18.079Z,100950.00
2018-08-20T01:37:47.752Z,100947.00
2018-08-20T01:40:16.588Z,100951.00
2018-08-20T01:42:45.521Z,100955.00
2018-08-20T01:45:14.375Z,100953.00
2018-08-20T01:47:43.332Z,100958.00
2018-08-20T01:50:12.204Z,100947.00
2018-08-20T01:52:41.051Z,100957.00
2018-08-20T01:55:09.891Z,100952.00
2018-08-20T01:57:38.710Z,100962.00
2018-08-20T02:00:07.573Z,100947.00
2018-08-20T02:02:36.494Z,100960.00
2018-08-20T02:05:06.773Z,100956.00
2018-08-20T02:07:35.622Z,100953.00
2018-08-20T02:10:05.570Z,100958.00
2018-08-20T02:12:34.432Z,100951.00
2018-08-20T02:15:04.550Z,100953.00
2018-08-20T02:17:33.383Z,100958.00
2018-08-20T02:20:02.265Z,100960.00
2018-08-20T02:22:31.160Z,100953.00
2018-08-20T02:25:00.163Z,100955.00
2018-08-20T02:27:29.041Z,100948.00
2018-08-20T02:29:58.423Z,100943.00
2018-08-20T02:32:27.248Z,100938.00
2018-08-20T02:34:56.085Z,100946.00
2018-08-20T02:37:30.792Z,100935.00
2018-08-20T02:40:00.123Z,100944.00
2018-08-20T02:42:29.101Z,100941.00
2018-08-20T02:44:57.943Z,100931.00
2018-08-20T02:47:26.801Z,100934.00
2018-08-20T02:49:55.676Z,100928.00
2018-08-20T02:52:24.547Z,100929.00
2018-08-20T02:54:53.395Z,100931.00
2018-08-20T02:57:22.236Z,100932.00
2018-08-20T02:59:51.124Z,100931.00
2018-08-20T03:02:20.007Z,100934.00
2018-08-20T03:04:48.909Z,100932.00
2018-08-20T03:07:17.801Z,100932.00
2018-08-20T03:09:46.688Z,100934.00
2018-08-20T03:12:15.499Z,100931.00
2018-08-20T03:14:44.380Z,100932.00
2018-08-20T03:17:13.223Z,100944.00
2018-08-20T03:19:42.121Z,100934.00
2018-08-20T03:22:11.004Z,100935.00
2018-08-20T03:24:39.902Z,100928.00
2018-08-20T03:27:08.791Z,100930.00
2018-08-20T03:29:37.713Z,100930.00
2018-08-20T03:32:06.602Z,100928.00
2018-08-20T03:34:35.507Z,100930.00
2018-08-20T03:37:04.331Z,100923.00
2018-08-20T03:39:33.228Z,100930.00
2018-08-20T03:42:02.211Z,100926.00
2018-08-20T03:44:31.131Z,100928.00
2018-08-20T03:46:59.944Z,100931.00
2018-08-20T03:49:28.770Z,100935.00
2018-08-20T03:51:57.673Z,100940.00
2018-08-20T03:54:26.580Z,100936.00
2018-08-20T03:56:55.423Z,100935.00
2018-08-20T03:59:35.779Z,100940.00
2018-08-20T04:02:06.010Z,100937.00
2018-08-20T04:04:39.071Z,100939.00
2018-08-20T04:07:08.117Z,100940.00
2018-08-20T04:09:37.079Z,100940.00
2018-08-20T04:12:05.924Z,100937.00
2018-08-20T04:14:34.803Z,100943.00
2018-08-20T04:17:03.664Z,100934.00
2018-08-20T04:19:32.476Z,100941.00
2018-08-20T04:22:01.739Z,100939.00
2018-08-20T04:24:30.642Z,100938.00
2018-08-20T04:26:59.492Z,100943.00
2018-08-20T04:29:28.378Z,100943.00
2018-08-20T04:31:57.261Z,100948.00
2018-08-20T04:34:26.111Z,100953.00
2018-08-20T04:36:55.010Z,100949.00
2018-08-20T04:39:23.860Z,100950.00
2018-08-20T04:41:52.733Z,100955.00
2018-08-20T04:44:21.605Z,100956.00
2018-08-20T04:46:50.519Z,100954.00
2018-08-20T04:49:19.421Z,100948.00
2018-08-20T04:51:48.235Z,100957.00
2018-08-20T04:54:17.113Z,100953.00
2018-08-20T04:56:46.010Z,100955.00
2018-08-20T04:59:14.863Z,100956.00
2018-08-20T05:01:43.710Z,100960.00
2018-08-20T05:04:12.569Z,100951.00
2018-08-20T05:06:41.460Z,100955.00
2018-08-20T05:09:10.466Z,100960.00
2018-08-20T05:11:39.378Z,100961.00
2018-08-20T05:14:08.245Z,100959.00
2018-08-20T05:16:37.113Z,100968.00
2018-08-20T05:19:06.058Z,100962.00
2018-08-20T05:21:34.921Z,100963.00
2018-08-20T05:24:03.894Z,100964.00
2018-08-20T05:26:32.795Z,100966.00
2018-08-20T05:29:01.748Z,100969.00
2018-08-20T05:31:30.628Z,100974.00
2018-08-20T05:33:59.470Z,100973.00
2018-08-20T05:36:28.275Z,100977.00
2018-08-20T05:38:57.170Z,100970.00
2018-08-20T05:41:26.039Z,100976.00
2018-08-20T05:43:54.910Z,100978.00
2018-08-20T05:46:23.786Z,100979.00
2018-08-20T05:48:52.677Z,100977.00
2018-08-20T05:51:21.488Z,100981.00
2018-08-20T05:53:50.320Z,100989.00
2018-08-20T05:56:19.153Z,100982.00
2018-08-20T05:58:47.983Z,101002.00
2018-08-20T06:01:16.803Z,101001.00
2018-08-20T06:03:45.891Z,100994.00
2018-08-20T06:06:14.798Z,101000.00
2018-08-20T06:08:43.635Z,101002.00
2018-08-20T06:11:12.487Z,101011.00
2018-08-20T06:13:41.361Z,101006.00
2018-08-20T06:16:10.228Z,101015.00
2018-08-20T06:18:39.069Z,101016.00
2018-08-20T06:21:08.097Z,101014.00
2018-08-20T06:23:37.012Z,101015.00
2018-08-20T06:26:06.049Z,101018.00
2018-08-20T06:28:34.933Z,101020.00
2018-08-20T06:31:03.819Z,101010.00
2018-08-20T06:33:32.615Z,101011.00
2018-08-20T06:36:01.456Z,101016.00
2018-08-20T06:38:30.321Z,101022.00
2018-08-20T06:40:59.127Z,101023.00
2018-08-20T06:43:27.964Z,101022.00
2018-08-20T06:45:56.878Z,101020.00
2018-08-20T06:48:25.736Z,101021.00
2018-08-20T06:50:54.573Z,101027.00
2018-08-20T06:53:23.442Z,101019.00
2018-08-20T06:55:52.289Z,101010.00
2018-08-20T06:58:21.183Z,101016.00
2018-08-20T07:00:50.035Z,101025.00
2018-08-20T07:03:18.863Z,101011.00
2018-08-20T07:05:47.780Z,101021.00
2018-08-20T07:08:16.631Z,101022.00
2018-08-20T07:10:47.193Z,101025.00
2018-08-20T07:13:27.611Z,101024.00
2018-08-20T07:15:56.402Z,101013.00
2018-08-20T07:18:25.305Z,101016.00
2018-08-20T07:20:54.156Z,101012.00
2018-08-20T07:23:23.892Z,101007.00
2018-08-20T07:25:52.702Z,101018.00
2018-08-20T07:28:21.663Z,101016.00
2018-08-20T07:30:50.540Z,101009.00
2018-08-20T07:33:19.356Z,101016.00
2018-08-20T07:35:48.312Z,101017.00
2018-08-20T07:38:17.134Z,101033.00
2018-08-20T07:40:45.975Z,101035.00
2018-08-20T07:43:14.866Z,101040.00
2018-08-20T07:45:43.705Z,101048.00
2018-08-20T07:48:12.519Z,101047.00
2018-08-20T07:50:41.396Z,101053.00
2018-08-20T07:53:10.236Z,101049.00
2018-08-20T07:55:39.167Z,101059.00
2018-08-20T07:58:08.768Z,101061.00
2018-08-20T08:00:37.773Z,101058.00
2018-08-20T08:03:06.592Z,101061.00
2018-08-20T08:05:35.477Z,101057.00
2018-08-20T08:08:04.372Z,101065.00
2018-08-20T08:10:33.212Z,101054.00
2018-08-20T08:13:02.072Z,101059.00
2018-08-20T08:15:30.998Z,101063.00
2018-08-20T08:17:59.844Z,101074.00
2018-08-20T08:20:28.704Z,101074.00
2018-08-20T08:22:57.531Z,101067.00
2018-08-20T08:25:26.409Z,101071.00
2018-08-20T08:27:55.235Z,101072.00
2018-08-20T08:30:24.079Z,101079.00
2018-08-20T08:32:52.923Z,101080.00
2018-08-20T08:35:21.821Z,101074.00
2018-08-20T08:37:50.705Z,101072.00
2018-08-20T08:40:19.601Z,101080.00
2018-08-20T08:42:48.440Z,101077.00
2018-08-20T08:45:18.700Z,101076.00
2018-08-20T08:47:47.777Z,101096.00
2018-08-20T08:50:17.570Z,101079.00
2018-08-20T08:52:46.967Z,101085.00
2018-08-20T08:55:15.820Z,101080.00
2018-08-20T08:57:44.670Z,101080.00
2018-08-20T09:00:17.977Z,101080.00
2018-08-20T09:02:46.987Z,101088.00
2018-08-20T09:05:16.007Z,101090.00
2018-08-20T09:07:44.914Z,101084.00
2018-08-20T09:10:14.044Z,101077.00
2018-08-20T09:12:42.986Z,101077.00
2018-08-20T09:15:16.601Z,101082.00
2018-08-20T09:17:45.686Z,101080.00
2018-08-20T09:20:15.937Z,101078.00
2018-08-20T09:22:44.954Z,101078.00
2018-08-20T09:25:14.532Z,101078.00
2018-08-20T09:27:44.355Z,101076.00
2018-08-20T09:30:18.895Z,101078.00
2018-08-20T09:32:48.190Z,101078.00
2018-08-20T09:35:17.156Z,101090.00
2018-08-20T09:37:45.991Z,101082.00
2018-08-20T09:40:15.131Z,101083.00
2018-08-20T09:42:44.375Z,101084.00
2018-08-20T09:45:13.244Z,101078.00
2018-08-20T09:47:42.900Z,101082.00
2018-08-20T09:50:13.910Z,101078.00
2018-08-20T09:52:42.988Z,101078.00
2018-08-20T09:55:11.814Z,101077.00
2018-08-20T09:57:40.874Z,101073.00
2018-08-20T10:00:19.760Z,101078.00
2018-08-20T10:02:48.752Z,101077.00
2018-08-20T10:05:17.887Z,101078.00
2018-08-20T10:07:47.420Z,101080.00
2018-08-20T10:10:16.580Z,101077.00
2018-08-20T10:12:46.031Z,101082.00
2018-08-20T10:15:15.201Z,101078.00
2018-08-20T10:17:44.632Z,101083.00
2018-08-20T10:20:14.601Z,101083.00
2018-08-20T10:22:43.545Z,101085.00
2018-08-20T10:25:12.402Z,101092.00
2018-08-20T10:27:41.285Z,101075.00
2018-08-20T10:30:11.510Z,101084.00
2018-08-20T10:32:40.448Z,101080.00
2018-08-20T10:35:09.360Z,101089.00
2018-08-20T10:37:38.219Z,101088.00
2018-08-20T10:40:08.202Z,101084.00
2018-08-20T10:42:37.974Z,101089.00
2018-08-20T10:45:16.335Z,101088.00
2018-08-20T10:47:47.131Z,101094.00
2018-08-20T10:50:19.318Z,101089.00
2018-08-20T10:52:49.544Z,101094.00
2018-08-20T10:55:18.467Z,101099.00
2018-08-20T10:57:47.302Z,101102.00
2018-08-20T11:00:16.712Z,101095.00
2018-08-20T11:02:45.564Z,101103.00
2018-08-20T11:05:17.729Z,101093.00
2018-08-20T11:07:46.733Z,101080.00
2018-08-20T11:10:15.582Z,101094.00
2018-08-20T11:12:44.436Z,101084.00
2018-08-20T11:15:13.304Z,101099.00
2018-08-20T11:17:42.149Z,101080.00
2018-08-20T11:20:14.339Z,101092.00
2018-08-20T11:22:43.372Z,101090.00
2018-08-20T11:25:12.745Z,101082.00
2018-08-20T11:27:41.828Z,101095.00
2018-08-20T11:30:12.954Z,101103.00
2018-08-20T11:32:42.017Z,101107.00
2018-08-20T11:35:11.506Z,101096.00
2018-08-20T11:37:40.492Z,101101.00
2018-08-20T11:40:09.883Z,101086.00
2018-08-20T11:42:38.820Z,101099.00
2018-08-20T11:45:10.697Z,101101.00
2018-08-20T11:47:39.595Z,101093.00
2018-08-20T11:50:08.500Z,101091.00
2018-08-20T11:52:38.124Z,101105.00
2018-08-20T11:55:07.124Z,101112.00
2018-08-20T11:57:36.194Z,101087.00
2018-08-20T12:00:07.943Z,101092.00
2018-08-20T12:02:36.775Z,101106.00
2018-08-20T12:05:06.241Z,101093.00
2018-08-20T12:07:35.131Z,101094.00
2018-08-20T12:10:03.994Z,101085.00
2018-08-20T12:12:32.840Z,101090.00
2018-08-20T12:15:01.681Z,101088.00
2018-08-20T12:17:30.579Z,101088.00
2018-08-20T12:19:59.441Z,101088.00
2018-08-20T12:22:28.455Z,101088.00
2018-08-20T12:24:57.158Z,101090.00
2018-08-20T12:27:25.979Z,101100.00
2018-08-20T12:29:54.996Z,101094.00
2018-08-20T12:32:23.886Z,101091.00
2018-08-20T12:34:52.704Z,101104.00
2018-08-20T12:37:21.546Z,101100.00
2018-08-20T12:39:50.461Z,101109.00
2018-08-20T12:42:19.316Z,101101.00
2018-08-20T12:44:48.245Z,101101.00
2018-08-20T12:47:17.076Z,101100.00
2018-08-20T12:49:46.159Z,101103.00
2018-08-20T12:52:15.081Z,101103.00
2018-08-20T12:54:44.076Z,101103.00
2018-08-20T12:57:12.915Z,101101.00
2018-08-20T12:59:41.767Z,101103.00
2018-08-20T13:02:10.608Z,101105.00
2018-08-20T13:04:39.466Z,101104.00
2018-08-20T13:07:08.360Z,101101.00
2018-08-20T13:09:37.240Z,101104.00
2018-08-20T13:12:06.423Z,101100.00
2018-08-20T13:14:35.284Z,101096.00
2018-08-20T13:17:04.194Z,101119.00
2018-08-20T13:19:33.070Z,101113.00
2018-08-20T13:22:01.931Z,101105.00
2018-08-20T13:24:30.781Z,101100.00
2018-08-20T13:26:59.641Z,101100.00
2018-08-20T13:29:28.599Z,101105.00
2018-08-20T13:31:57.464Z,101104.00
2018-08-20T13:34:26.320Z,101107.00
2018-08-20T13:36:55.130Z,101110.00
2018-08-20T13:39:23.972Z,101114.00
2018-08-20T13:41:52.828Z,101113.00
2018-08-20T13:44:21.731Z,101095.00
2018-08-20T13:46:50.601Z,101102.00
2018-08-20T13:49:19.448Z,101113.00
2018-08-20T13:51:48.349Z,101105.00
2018-08-20T13:54:17.216Z,101103.00
2018-08-20T13:56:46.086Z,101108.00
2018-08-20T13:59:14.941Z,101100.00
2018-08-20T14:01:43.826Z,101110.00
2018-08-20T14:04:12.637Z,101111.00
2018-08-20T14:06:41.537Z,101099.00
2018-08-20T14:09:11.379Z,101091.00
2018-08-20T14:11:40.291Z,101102.00
2018-08-20T14:14:09.579Z,101092.00
2018-08-20T14:16:38.458Z,101101.00
2018-08-20T14:19:07.304Z,101096.00
2018-08-20T14:21:36.173Z,101096.00
2018-08-20T14:24:04.986Z,101085.00
2018-08-20T14:26:33.851Z,101088.00
2018-08-20T14:29:02.691Z,101096.00
2018-08-20T14:31:31.543Z,101093.00
2018-08-20T14:34:00.451Z,101094.00
2018-08-20T14:36:29.376Z,101103.00
2018-08-20T14:38:58.272Z,101104.00
2018-08-20T14:41:27.078Z,101096.00
2018-08-20T14:43:55.999Z,101092.00
2018-08-20T14:46:24.856Z,101092.00
2018-08-20T14:48:54.164Z,101093.00
2018-08-20T14:51:22.982Z,101091.00
2018-08-20T14:53:51.817Z,101101.00
2018-08-20T14:56:20.705Z,101094.00
2018-08-20T14:58:49.536Z,101099.00
2018-08-20T15:01:18.377Z,101096.00
2018-08-20T15:03:47.245Z,101102.00
2018-08-20T15:06:16.109Z,101085.00
2018-08-20T15:08:44.950Z,101095.00
2018-08-20T15:11:13.788Z,101102.00
2018-08-20T15:13:42.649Z,101099.00
2018-08-20T15:16:11.504Z,101104.00
2018-08-20T15:18:40.382Z,101109.00
2018-08-20T15:21:09.244Z,101100.00
2018-08-20T15:23:38.130Z,101096.00
2018-08-20T15:26:07.017Z,101104.00
2018-08-20T15:28:35.902Z,101103.00
2018-08-20T15:31:04.775Z,101101.00
2018-08-20T15:33:34.234Z,101110.00
2018-08-20T15:36:03.188Z,101110.00
2018-08-20T15:38:32.060Z,101106.00
2018-08-20T15:41:00.912Z,101103.00
2018-08-20T15:43:29.785Z,101105.00
2018-08-20T15:45:58.644Z,101110.00
2018-08-20T15:48:27.484Z,101117.00
2018-08-20T15:50:56.330Z,101106.00
2018-08-20T15:53:25.196Z,101107.00
2018-08-20T15:55:54.065Z,101101.00
2018-08-20T15:58:22.922Z,101112.00
2018-08-20T16:00:51.782Z,101109.00
2018-08-20T16:03:20.656Z,101119.00
2018-08-20T16:05:49.549Z,101115.00
2018-08-20T16:08:18.400Z,101114.00
2018-08-20T16:10:47.222Z,101113.00
2018-08-20T16:13:16.097Z,101108.00
2018-08-20T16:15:44.989Z,101110.00
2018-08-20T16:18:13.802Z,101106.00
2018-08-20T16:20:42.641Z,101107.00
2018-08-20T16:23:11.478Z,101104.00
2018-08-20T16:25:40.295Z,101094.00
2018-08-20T16:28:09.190Z,101095.00
2018-08-20T16:30:38.044Z,101105.00
2018-08-20T16:33:06.921Z,101095.00
2018-08-20T16:35:35.782Z,101095.00
2018-08-20T16:38:04.640Z,101099.00
2018-08-20T16:40:33.507Z,101087.00
2018-08-20T16:43:02.362Z,101090.00
2018-08-20T16:45:31.392Z,101085.00
2018-08-20T16:48:00.124Z,101089.00
2018-08-20T16:50:28.958Z,101087.00
2018-08-20T16:52:57.816Z,101090.00
2018-08-20T16:55:26.777Z,101090.00
2018-08-20T16:57:55.660Z,101086.00
2018-08-20T17:00:24.544Z,101076.00
2018-08-20T17:02:53.358Z,101078.00
2018-08-20T17:05:22.218Z,101076.00
2018-08-20T17:07:51.111Z,101079.00
2018-08-20T17:10:19.956Z,101079.00
2018-08-20T17:12:48.807Z,101081.00
2018-08-20T17:15:19.765Z,101079.00
2018-08-20T17:17:48.631Z,101080.00
2018-08-20T17:20:17.478Z,101078.00
2018-08-20T17:22:46.363Z,101077.00
2018-08-20T17:25:15.289Z,101080.00
2018-08-20T17:27:51.660Z,101073.00
2018-08-20T17:30:22.384Z,101077.00
2018-08-20T17:32:51.267Z,101077.00
2018-08-20T17:35:20.116Z,101076.00
2018-08-20T17:37:50.076Z,101085.00
2018-08-20T17:40:18.871Z,101088.00
2018-08-20T17:42:47.696Z,101080.00
2018-08-20T17:45:16.537Z,101084.00
2018-08-20T17:47:45.425Z,101092.00
2018-08-20T17:50:32.851Z,101093.00
2018-08-20T17:53:01.708Z,101089.00
2018-08-20T17:55:30.583Z,101092.00
2018-08-20T17:57:59.554Z,101094.00
2018-08-20T18:00:39.416Z,101100.00
2018-08-20T18:03:20.321Z,101107.00
2018-08-20T18:06:01.037Z,101101.00
2018-08-20T18:08:31.093Z,101100.00
2018-08-20T18:11:00.323Z,101111.00
2018-08-20T18:13:47.440Z,101106.00
2018-08-20T18:16:20.666Z,101106.00
2018-08-20T18:18:50.877Z,101113.00
2018-08-20T18:21:20.061Z,101111.00
2018-08-20T18:23:48.907Z,101108.00
2018-08-20T18:26:17.977Z,101110.00
2018-08-20T18:28:51.650Z,101109.00
2018-08-20T18:31:23.480Z,101111.00
2018-08-20T18:33:52.391Z,101116.00
2018-08-20T18:36:22.472Z,101111.00
2018-08-20T18:38:54.134Z,101116.00
2018-08-20T18:42:01.529Z,101115.00
2018-08-20T18:44:30.412Z,101116.00
2018-08-20T18:46:59.298Z,101122.00
2018-08-20T18:49:28.140Z,101130.00
2018-08-20T18:52:04.231Z,101139.00
2018-08-20T18:54:41.047Z,101135.00
2018-08-20T18:57:09.858Z,101137.00
2018-08-20T18:59:39.777Z,101144.00
2018-08-20T19:02:12.905Z,101140.00
2018-08-20T19:04:46.871Z,101143.00
2018-08-20T19:07:15.810Z,101141.00
2018-08-20T19:09:50.088Z,101147.00
2018-08-20T19:12:19.155Z,101148.00
2018-08-20T19:14:48.055Z,101151.00
2018-08-20T19:17:22.379Z,101150.00
2018-08-20T19:19:51.584Z,101154.00
2018-08-20T19:22:26.468Z,101152.00
2018-08-20T19:24:55.525Z,101149.00
2018-08-20T19:27:31.967Z,101140.00
2018-08-20T19:30:10.108Z,101144.00
2018-08-20T19:32:38.948Z,101143.00
2018-08-20T19:35:07.751Z,101149.00
2018-08-20T19:37:36.588Z,101145.00
2018-08-20T19:40:06.924Z,101150.00
2018-08-20T19:42:35.860Z,101149.00
2018-08-20T19:45:07.820Z,101145.00
2018-08-20T19:47:36.752Z,101154.00
2018-08-20T19:50:08.740Z,101151.00
2018-08-20T19:52:37.600Z,101147.00
2018-08-20T19:55:10.012Z,101151.00
2018-08-20T19:57:38.941Z,101155.00
2018-08-20T20:00:11.566Z,101145.00
2018-08-20T20:02:42.915Z,101147.00
2018-08-20T20:05:15.941Z,101143.00
2018-08-20T20:07:56.068Z,101146.00
2018-08-20T20:10:25.058Z,101146.00
2018-08-20T20:12:55.027Z,101141.00
2018-08-20T20:15:24.723Z,101144.00
2018-08-20T20:17:54.822Z,101145.00
2018-08-20T20:20:23.634Z,101149.00
2018-08-20T20:22:52.536Z,101158.00
2018-08-20T20:25:21.384Z,101162.00
2018-08-20T20:27:50.220Z,101147.00
2018-08-20T20:30:19.112Z,101156.00
2018-08-20T20:32:47.918Z,101150.00
2018-08-20T20:35:16.791Z,101151.00
2018-08-20T20:37:45.665Z,101157.00
2018-08-20T20:40:14.512Z,101161.00
2018-08-20T20:42:43.458Z,101159.00
2018-08-20T20:45:12.326Z,101158.00
2018-08-20T20:47:41.204Z,101158.00
2018-08-20T20:50:10.084Z,101162.00
2018-08-20T20:52:38.980Z,101168.00
2018-08-20T20:55:07.811Z,101165.00
2018-08-20T20:57:36.655Z,101172.00
2018-08-20T21:00:07.198Z,101175.00
2018-08-20T21:02:36.010Z,101172.00
2018-08-20T21:05:09.713Z,101179.00
2018-08-20T21:07:38.719Z,101183.00
2018-08-20T21:10:08.279Z,101182.00
2018-08-20T21:12:37.128Z,101188.00
2018-08-20T21:15:08.096Z,101194.00
2018-08-20T21:17:37.533Z,101188.00
2018-08-20T21:20:07.144Z,101185.00
2018-08-20T21:22:38.070Z,101190.00
2018-08-20T21:25:08.289Z,101191.00
2018-08-20T21:27:37.132Z,101197.00
2018-08-20T21:30:06.251Z,101198.00
2018-08-20T21:32:35.115Z,101197.00
2018-08-20T21:35:04.017Z,101204.00
2018-08-20T21:37:32.891Z,101202.00
2018-08-20T21:40:01.769Z,101205.00
2018-08-20T21:42:36.014Z,101207.00
2018-08-20T21:45:05.480Z,101208.00
2018-08-20T21:47:34.340Z,101213.00
2018-08-20T21:50:03.254Z,101214.00
2018-08-20T21:52:32.072Z,101216.00
2018-08-20T21:55:00.971Z,101222.00
2018-08-20T21:57:29.868Z,101217.00
2018-08-20T22:00:10.523Z,101225.00
2018-08-20T22:02:39.940Z,101222.00
2018-08-20T22:05:08.813Z,101231.00
2018-08-20T22:07:37.830Z,101232.00
2018-08-20T22:10:06.735Z,101230.00
2018-08-20T22:12:35.555Z,101238.00
2018-08-20T22:15:05.516Z,101245.00
2018-08-20T22:17:34.374Z,101239.00
2018-08-20T22:20:03.178Z,101240.00
2018-08-20T22:22:32.019Z,101245.00
2018-08-20T22:25:01.996Z,101246.00
2018-08-20T22:27:35.968Z,101245.00
2018-08-20T22:30:05.579Z,101242.00
2018-08-20T22:32:35.299Z,101248.00
2018-08-20T22:35:11.499Z,101249.00
2018-08-20T22:37:40.517Z,101256.00
2018-08-20T22:40:09.624Z,101266.00
2018-08-20T22:43:02.550Z,101260.00
2018-08-20T22:45:31.395Z,101262.00
2018-08-20T22:48:00.232Z,101269.00
2018-08-20T22:50:29.064Z,101262.00
2018-08-20T22:52:57.888Z,101263.00
2018-08-20T22:55:26.744Z,101266.00
2018-08-20T22:58:09.116Z,101262.00
2018-08-20T23:00:38.028Z,101270.00
2018-08-20T23:03:06.864Z,101260.00
2018-08-20T23:05:35.690Z,101262.00
2018-08-20T23:08:09.914Z,101262.00
2018-08-20T23:10:41.818Z,101258.00
2018-08-20T23:13:10.618Z,101265.00
2018-08-20T23:15:39.428Z,101272.00
2018-08-20T23:18:08.295Z,101272.00
2018-08-20T23:20:37.242Z,101271.00
2018-08-20T23:23:06.131Z,101271.00
2018-08-20T23:25:34.954Z,101271.00
2018-08-20T23:28:03.846Z,101269.00
2018-08-20T23:30:32.692Z,101273.00
2018-08-20T23:33:01.560Z,101267.00
2018-08-20T23:35:30.399Z,101279.00
2018-08-20T23:37:59.336Z,101280.00
2018-08-20T23:40:28.212Z,101273.00
2018-08-20T23:42:57.042Z,101284.00
2018-08-20T23:45:25.904Z,101290.00
2018-08-20T23:47:54.739Z,101296.00
2018-08-20T23:50:23.576Z,101295.00
2018-08-20T23:52:52.417Z,101301.00
2018-08-20T23:55:21.253Z,101296.00
2018-08-20T23:57:50.116Z,101305.00
